Time;durP1;ratioP1;P1;durP2;ratioP2;P2;SDS_P1;SDS_P2;PMS_P1;PMS_P2;Temp;Humidity;BMP_temperature;BMP_pressure;BME280_temperature;BME280_humidity;BME280_pressure;Samples;Min_cycle;Max_cycle;Signal;HPM_P1;HPM_P2
2022/04/05 00:00:52;;;;;;;1.53;1.20;;;8.00;98.20;;;;;;5048055;28;20573;-75
2022/04/05 00:03:19;;;;;;;1.60;1.23;;;8.00;98.20;;;;;;5048282;28;20465;-78
2022/04/05 00:05:46;;;;;;;1.53;1.20;;;8.00;98.20;;;;;;5049888;28;20488;-75
2022/04/05 00:08:16;;;;;;;1.50;1.20;;;8.10;98.20;;;;;;5049469;28;20454;-77
2022/04/05 00:10:44;;;;;;;1.50;1.20;;;8.10;98.20;;;;;;5044289;28;20460;-76
2022/04/05 00:13:11;;;;;;;1.60;1.30;;;8.10;98.20;;;;;;5038572;28;20474;-77
2022/04/05 00:15:38;;;;;;;1.60;1.30;;;8.10;98.20;;;;;;5049601;28;20994;-76
2022/04/05 00:18:05;;;;;;;1.57;1.30;;;8.20;98.20;;;;;;5077574;28;20475;-75
2022/04/05 00:20:32;;;;;;;1.50;1.20;;;8.20;98.20;;;;;;5049455;28;20458;-75
2022/04/05 00:23:01;;;;;;;1.50;1.10;;;8.20;98.20;;;;;;5050416;28;20449;-77
2022/04/05 00:25:29;;;;;;;1.57;1.20;;;8.20;98.20;;;;;;5050433;28;20484;-74
2022/04/05 00:27:57;;;;;;;1.53;1.20;;;8.20;98.20;;;;;;5050271;28;20455;-75
2022/04/05 00:30:24;;;;;;;1.50;1.20;;;8.20;98.20;;;;;;5049785;28;20477;-74
2022/04/05 00:32:51;;;;;;;1.53;1.20;;;8.30;98.20;;;;;;5049669;28;20525;-76
2022/04/05 00:35:18;;;;;;;1.50;1.10;;;8.20;98.20;;;;;;5049781;28;20616;-75
2022/04/05 00:37:45;;;;;;;1.57;1.20;;;8.30;98.20;;;;;;5051632;28;20480;-76
2022/04/05 00:40:13;;;;;;;1.50;1.20;;;8.30;98.20;;;;;;5061434;28;20453;-76
2022/04/05 00:42:42;;;;;;;1.57;1.20;;;8.30;98.20;;;;;;5057044;28;20488;-75
2022/04/05 00:45:10;;;;;;;1.50;1.20;;;8.30;98.20;;;;;;5057851;28;20478;-75
2022/04/05 00:47:39;;;;;;;1.50;1.10;;;8.30;98.20;;;;;;5057772;28;20685;-78
2022/04/05 00:50:07;;;;;;;1.50;1.20;;;8.30;98.20;;;;;;5048452;28;20464;-77
2022/04/05 00:52:34;;;;;;;1.57;1.23;;;8.40;98.20;;;;;;5051645;28;20512;-75
2022/04/05 00:55:01;;;;;;;1.53;1.20;;;8.40;98.20;;;;;;5047817;28;20582;-78
2022/04/05 00:57:30;;;;;;;1.60;1.30;;;8.40;98.20;;;;;;5045956;28;20498;-78
2022/04/05 01:00:03;;;;;;;1.50;1.10;;;8.40;98.20;;;;;;5046144;28;20549;-75
2022/04/05 01:02:36;;;;;;;1.60;1.30;;;8.40;98.20;;;;;;5031470;28;20604;-78
2022/04/05 01:05:04;;;;;;;1.60;1.30;;;8.40;98.20;;;;;;5050078;28;20489;-75
2022/04/05 01:07:32;;;;;;;1.60;1.20;;;8.50;98.20;;;;;;5052913;28;21008;-77
2022/04/05 01:10:00;;;;;;;1.53;1.20;;;8.50;98.20;;;;;;5055648;28;20859;-79
2022/04/05 01:12:27;;;;;;;1.50;1.10;;;8.50;98.20;;;;;;5048532;28;20477;-76
2022/04/05 01:14:54;;;;;;;1.50;1.10;;;8.50;98.20;;;;;;5054551;28;20501;-75
2022/04/05 01:17:23;;;;;;;1.53;1.10;;;8.60;98.20;;;;;;5053014;28;20532;-77
2022/04/05 01:19:49;;;;;;;1.53;1.20;;;8.60;98.20;;;;;;5043457;28;20891;-76
2022/04/05 01:22:17;;;;;;;1.53;1.20;;;8.60;98.20;;;;;;5046047;28;20989;-75
2022/04/05 01:24:45;;;;;;;1.57;1.20;;;8.60;98.20;;;;;;5040284;28;20475;-76
2022/04/05 01:27:17;;;;;;;1.57;1.20;;;8.60;98.20;;;;;;5043474;28;22001;-74
2022/04/05 01:29:44;;;;;;;1.57;1.17;;;8.60;98.20;;;;;;5037130;28;20459;-74
2022/04/05 01:32:11;;;;;;;1.60;1.30;;;8.70;98.20;;;;;;5039225;28;20467;-75
2022/04/05 01:34:41;;;;;;;1.57;1.20;;;8.70;98.20;;;;;;5049976;28;20489;-74
2022/04/05 01:37:12;;;;;;;1.50;1.13;;;8.70;98.20;;;;;;5046808;28;21158;-74
2022/04/05 01:39:41;;;;;;;1.50;1.10;;;8.70;98.20;;;;;;5054967;28;20495;-74
2022/04/05 01:42:12;;;;;;;1.50;1.20;;;8.80;98.20;;;;;;5045109;28;20473;-74
2022/04/05 01:44:40;;;;;;;1.60;1.30;;;8.80;98.20;;;;;;5052119;28;20521;-75
2022/04/05 01:47:10;;;;;;;1.50;1.20;;;8.80;98.20;;;;;;5052424;28;20486;-74
2022/04/05 01:49:38;;;;;;;1.57;1.20;;;8.80;98.20;;;;;;5051592;28;20494;-78
2022/04/05 01:52:06;;;;;;;1.53;1.20;;;8.80;98.20;;;;;;5050197;28;20477;-76
2022/04/05 01:54:33;;;;;;;1.60;1.30;;;8.90;98.20;;;;;;5052253;28;20894;-76
2022/04/05 01:57:00;;;;;;;1.50;1.10;;;8.90;98.20;;;;;;5051073;28;20458;-74
2022/04/05 01:59:30;;;;;;;1.50;1.20;;;8.90;98.20;;;;;;5050863;28;20458;-74
2022/04/05 02:01:58;;;;;;;1.53;1.20;;;8.90;98.20;;;;;;5050688;28;20458;-76
2022/04/05 02:04:25;;;;;;;1.53;1.20;;;8.90;98.20;;;;;;5051707;28;20482;-76
2022/04/05 02:06:52;;;;;;;1.60;1.20;;;8.90;98.20;;;;;;5052030;28;21007;-76
2022/04/05 02:09:19;;;;;;;1.50;1.20;;;9.00;98.20;;;;;;5051985;28;21042;-78
2022/04/05 02:11:48;;;;;;;1.50;1.17;;;9.00;98.20;;;;;;5042544;28;20959;-75
2022/04/05 02:14:16;;;;;;;1.57;1.20;;;9.00;98.20;;;;;;5049552;28;20889;-76
2022/04/05 02:16:44;;;;;;;1.57;1.20;;;9.00;98.20;;;;;;5053364;28;20491;-77
2022/04/05 02:19:11;;;;;;;1.53;1.10;;;9.00;98.20;;;;;;5080168;28;20468;-78
2022/04/05 02:21:38;;;;;;;1.53;1.20;;;9.00;98.20;;;;;;5069565;28;20457;-75
2022/04/05 02:24:06;;;;;;;1.53;1.20;;;9.00;98.20;;;;;;5066972;28;20480;-75
2022/04/05 02:26:33;;;;;;;1.57;1.20;;;9.00;98.20;;;;;;5066742;28;20465;-75
2022/04/05 02:29:00;;;;;;;1.60;1.20;;;9.10;98.20;;;;;;5073386;28;20472;-74
2022/04/05 02:31:28;;;;;;;1.57;1.20;;;9.10;98.20;;;;;;5070676;28;20458;-75
2022/04/05 02:33:56;;;;;;;1.53;1.20;;;9.10;98.20;;;;;;5071901;28;20481;-75
2022/04/05 02:36:23;;;;;;;1.53;1.20;;;9.10;98.20;;;;;;5070113;28;20979;-78
2022/04/05 02:38:50;;;;;;;1.53;1.17;;;9.10;98.20;;;;;;5069850;28;20457;-78
2022/04/05 02:41:17;;;;;;;1.57;1.20;;;9.10;98.20;;;;;;5065058;28;20466;-78
2022/04/05 02:43:44;;;;;;;1.53;1.10;;;9.20;98.20;;;;;;5062087;28;20461;-75
2022/04/05 02:46:12;;;;;;;1.57;1.20;;;9.20;98.20;;;;;;5069092;28;20469;-73
2022/04/05 02:48:43;;;;;;;1.60;1.23;;;9.20;98.20;;;;;;5064942;28;20489;-76
2022/04/05 02:51:12;;;;;;;1.57;1.20;;;9.20;98.20;;;;;;5065600;28;20530;-76
2022/04/05 02:53:39;;;;;;;1.60;1.30;;;9.30;98.20;;;;;;5070639;28;20878;-79
2022/04/05 02:56:07;;;;;;;1.60;1.20;;;9.30;98.20;;;;;;5068786;28;20460;-75
2022/04/05 02:58:35;;;;;;;1.53;1.10;;;9.30;98.20;;;;;;5071406;28;20500;-76
2022/04/05 03:01:02;;;;;;;3.70;2.13;;;9.30;98.20;;;;;;5068993;28;21643;-76
2022/04/05 03:03:29;;;;;;;1.50;1.10;;;9.30;98.20;;;;;;5065585;28;20484;-76
2022/04/05 03:05:56;;;;;;;1.60;1.20;;;9.30;98.20;;;;;;5063204;28;20492;-78
2022/04/05 03:08:24;;;;;;;1.60;1.17;;;9.30;98.20;;;;;;5070732;28;20461;-75
2022/04/05 03:10:51;;;;;;;1.50;1.10;;;9.30;98.20;;;;;;5064835;28;20962;-77
2022/04/05 03:13:18;;;;;;;1.50;1.10;;;9.40;98.20;;;;;;5064950;28;20512;-74
2022/04/05 03:15:45;;;;;;;1.50;1.10;;;9.40;98.20;;;;;;5070799;28;20840;-73
2022/04/05 03:18:12;;;;;;;1.53;1.20;;;9.40;98.20;;;;;;5069161;28;20518;-77
2022/04/05 03:20:39;;;;;;;1.57;1.20;;;9.40;98.20;;;;;;5069693;28;20468;-75
2022/04/05 03:23:07;;;;;;;1.57;1.20;;;9.40;98.20;;;;;;5060158;28;20847;-75
2022/04/05 03:25:35;;;;;;;1.50;1.10;;;9.40;98.20;;;;;;5063801;28;20486;-78
2022/04/05 03:28:03;;;;;;;1.53;1.10;;;9.40;98.20;;;;;;5067773;28;20462;-77
2022/04/05 03:30:31;;;;;;;1.53;1.20;;;9.40;98.20;;;;;;5069578;28;20465;-76
2022/04/05 03:32:58;;;;;;;1.60;1.20;;;9.40;98.20;;;;;;5070196;28;20846;-75
2022/04/05 03:35:25;;;;;;;1.53;1.20;;;9.50;98.20;;;;;;5066307;28;21072;-75
2022/04/05 03:37:52;;;;;;;1.57;1.17;;;9.50;98.20;;;;;;5069777;28;20466;-74
2022/04/05 03:40:22;;;;;;;1.50;1.10;;;9.50;98.20;;;;;;5067612;28;20472;-75
2022/04/05 03:42:51;;;;;;;1.53;1.10;;;9.50;98.20;;;;;;5065263;28;20991;-77
2022/04/05 03:45:17;;;;;;;1.60;1.20;;;9.50;98.20;;;;;;5051595;28;20479;-75
2022/04/05 03:47:44;;;;;;;1.50;1.10;;;9.50;98.20;;;;;;5054227;28;20594;-76
2022/04/05 03:50:11;;;;;;;1.50;1.10;;;9.50;98.20;;;;;;5051296;28;20462;-77
2022/04/05 03:52:38;;;;;;;1.57;1.20;;;9.50;98.20;;;;;;5049577;28;20523;-75
2022/04/05 03:55:05;;;;;;;1.60;1.20;;;9.50;98.20;;;;;;5049192;28;20501;-78
2022/04/05 03:57:32;;;;;;;1.57;1.20;;;9.50;98.20;;;;;;5053747;28;20469;-78
2022/04/05 04:00:00;;;;;;;1.50;1.03;;;9.60;98.20;;;;;;5056027;28;20466;-76
2022/04/05 04:02:27;;;;;;;1.53;1.10;;;9.60;98.20;;;;;;5045645;28;20462;-76
2022/04/05 04:04:54;;;;;;;1.53;1.10;;;9.60;98.20;;;;;;5054235;28;20576;-76
2022/04/05 04:07:21;;;;;;;1.50;1.07;;;9.60;98.20;;;;;;5049189;28;20464;-76
2022/04/05 04:09:47;;;;;;;1.50;1.10;;;9.60;98.20;;;;;;5053566;28;20886;-78
2022/04/05 04:12:14;;;;;;;1.60;1.30;;;9.60;98.20;;;;;;5059365;28;20962;-78
2022/04/05 04:14:41;;;;;;;1.50;1.10;;;9.60;98.20;;;;;;5051659;28;21013;-74
2022/04/05 04:17:09;;;;;;;1.60;1.20;;;9.60;98.20;;;;;;5050938;28;20466;-75
2022/04/05 04:19:36;;;;;;;1.60;1.20;;;9.60;98.20;;;;;;5056997;28;20472;-78
2022/04/05 04:22:03;;;;;;;1.53;1.10;;;9.60;98.20;;;;;;5054062;28;20970;-77
2022/04/05 04:24:30;;;;;;;1.60;1.20;;;9.60;98.20;;;;;;5054613;28;20834;-75
2022/04/05 04:26:57;;;;;;;1.50;1.10;;;9.60;98.20;;;;;;5055347;28;20458;-76
2022/04/05 04:29:23;;;;;;;1.53;1.10;;;9.60;98.20;;;;;;5053944;28;20466;-79
2022/04/05 04:31:50;;;;;;;1.50;1.10;;;9.60;98.20;;;;;;5052165;28;20492;-79
2022/04/05 04:34:18;;;;;;;1.50;1.20;;;9.70;98.20;;;;;;5071233;28;20492;-78
2022/04/05 04:36:46;;;;;;;1.57;1.10;;;9.70;98.20;;;;;;5060302;28;20500;-76
2022/04/05 04:39:16;;;;;;;1.60;1.20;;;9.70;98.20;;;;;;5057415;28;20477;-76
2022/04/05 04:41:43;;;;;;;1.60;1.27;;;9.70;98.20;;;;;;5059848;28;20457;-77
2022/04/05 04:44:10;;;;;;;1.53;1.10;;;9.70;98.20;;;;;;5064596;28;20499;-76
2022/04/05 04:46:37;;;;;;;1.57;1.17;;;9.70;98.20;;;;;;5056572;28;20478;-78
2022/04/05 04:49:04;;;;;;;1.50;1.10;;;9.70;98.20;;;;;;5056155;28;20474;-77
2022/04/05 04:51:32;;;;;;;1.57;1.20;;;9.70;98.20;;;;;;5052527;28;20465;-78
2022/04/05 04:53:59;;;;;;;1.50;1.00;;;9.70;98.20;;;;;;5060233;28;20496;-76
2022/04/05 04:56:27;;;;;;;1.53;1.20;;;9.70;98.20;;;;;;5055372;28;20463;-76
2022/04/05 04:58:53;;;;;;;1.53;1.10;;;9.70;98.20;;;;;;5059563;28;20488;-76
2022/04/05 05:01:20;;;;;;;1.93;1.73;;;9.80;98.20;;;;;;5049964;28;20462;-78
2022/04/05 05:03:47;;;;;;;1.50;1.20;;;9.80;98.20;;;;;;5056677;28;20454;-76
2022/04/05 05:06:14;;;;;;;1.50;1.10;;;9.80;98.20;;;;;;5046734;28;20481;-76
2022/04/05 05:08:43;;;;;;;1.50;1.10;;;9.80;98.20;;;;;;5056590;28;20470;-77
2022/04/05 05:11:10;;;;;;;1.50;1.10;;;9.80;98.20;;;;;;5041611;28;20655;-76
2022/04/05 05:13:38;;;;;;;1.60;1.30;;;9.80;98.20;;;;;;5041118;28;20494;-79
2022/04/05 05:16:05;;;;;;;1.53;1.20;;;9.80;98.20;;;;;;5040259;28;20462;-74
2022/04/05 05:18:32;;;;;;;1.50;1.20;;;9.90;98.20;;;;;;5040653;28;20470;-74
2022/04/05 05:20:58;;;;;;;1.57;1.10;;;9.90;98.20;;;;;;5042008;28;20474;-75
2022/04/05 05:23:25;;;;;;;1.57;1.17;;;9.90;98.20;;;;;;5042516;28;21054;-75
2022/04/05 05:25:53;;;;;;;1.50;1.10;;;9.90;98.20;;;;;;5043129;28;20494;-75
2022/04/05 05:28:20;;;;;;;1.60;1.20;;;9.90;98.20;;;;;;5045100;28;20462;-75
2022/04/05 05:30:47;;;;;;;1.50;1.10;;;9.90;98.20;;;;;;5039436;28;20479;-74
2022/04/05 05:33:14;;;;;;;1.50;1.10;;;9.90;98.20;;;;;;5047258;28;20458;-76
2022/04/05 05:35:41;;;;;;;1.53;1.10;;;9.90;98.20;;;;;;5034422;28;20491;-74
2022/04/05 05:38:08;;;;;;;1.57;1.20;;;9.90;98.20;;;;;;5040739;28;20748;-75
2022/04/05 05:40:35;;;;;;;1.50;1.10;;;10.00;98.20;;;;;;5039839;28;20633;-76
2022/04/05 05:43:04;;;;;;;1.50;1.10;;;10.00;98.20;;;;;;5033731;28;20467;-76
2022/04/05 05:45:35;;;;;;;1.57;1.10;;;10.00;98.20;;;;;;5037183;28;20488;-76
2022/04/05 05:48:02;;;;;;;1.60;1.33;;;10.10;98.20;;;;;;5033050;28;20473;-76
2022/04/05 05:50:29;;;;;;;1.57;1.10;;;10.10;98.20;;;;;;5040221;28;20978;-75
2022/04/05 05:52:56;;;;;;;1.60;1.10;;;10.10;98.20;;;;;;5068826;28;20564;-76
2022/04/05 05:55:24;;;;;;;1.50;1.10;;;10.10;98.20;;;;;;5064220;28;20495;-75
2022/04/05 05:57:51;;;;;;;1.53;1.13;;;10.20;98.20;;;;;;5051792;28;20508;-76
2022/04/05 06:00:22;;;;;;;1.53;1.20;;;10.20;98.20;;;;;;5064843;28;20457;-76
2022/04/05 06:02:51;;;;;;;1.60;1.30;;;10.20;98.20;;;;;;5065076;28;20461;-76
2022/04/05 06:05:17;;;;;;;1.60;1.20;;;10.20;98.20;;;;;;5059840;28;20918;-76
2022/04/05 06:07:44;;;;;;;1.53;1.10;;;10.20;98.20;;;;;;5061610;28;20461;-76
2022/04/05 06:10:13;;;;;;;1.53;1.10;;;10.30;98.20;;;;;;5060355;28;20859;-76
2022/04/05 06:12:41;;;;;;;1.50;1.10;;;10.30;98.20;;;;;;5044138;28;20477;-76
2022/04/05 06:15:10;;;;;;;1.60;1.10;;;10.30;98.20;;;;;;5045404;28;20513;-76
2022/04/05 06:17:40;;;;;;;1.57;1.20;;;10.30;98.20;;;;;;5039462;28;20474;-76
2022/04/05 06:20:09;;;;;;;1.57;1.10;;;10.30;98.20;;;;;;5041829;28;20884;-75
2022/04/05 06:22:44;;;;;;;1.50;1.10;;;10.30;98.20;;;;;;5040102;28;20462;-75
2022/04/05 06:25:12;;;;;;;1.60;1.10;;;10.30;98.20;;;;;;5043159;28;20988;-75
2022/04/05 06:27:39;;;;;;;1.60;1.20;;;10.40;98.20;;;;;;5041193;28;20524;-76
2022/04/05 06:30:08;;;;;;;1.50;1.10;;;10.30;98.20;;;;;;5044280;28;20458;-75
2022/04/05 06:32:35;;;;;;;1.57;1.10;;;10.40;98.20;;;;;;5038149;28;20466;-76
2022/04/05 06:35:04;;;;;;;1.50;1.10;;;10.40;98.20;;;;;;5044398;28;21055;-73
2022/04/05 06:37:31;;;;;;;1.60;1.20;;;10.40;98.20;;;;;;5057340;28;20927;-75
2022/04/05 06:39:58;;;;;;;1.60;1.13;;;10.40;98.20;;;;;;5065648;28;20871;-76
2022/04/05 06:42:25;;;;;;;1.50;1.10;;;10.40;98.20;;;;;;5050948;28;20477;-75
2022/04/05 06:44:52;;;;;;;1.53;1.10;;;10.50;98.20;;;;;;5057623;28;20485;-76
2022/04/05 06:47:19;;;;;;;1.57;1.10;;;10.50;98.20;;;;;;5049892;28;20567;-76
2022/04/05 06:49:46;;;;;;;1.57;1.10;;;10.50;98.20;;;;;;5046911;28;20475;-75
2022/04/05 06:52:14;;;;;;;1.57;1.10;;;10.50;98.20;;;;;;5026630;28;20478;-75
2022/04/05 06:54:41;;;;;;;1.60;1.20;;;10.50;98.20;;;;;;5041873;28;20864;-74
2022/04/05 06:57:08;;;;;;;1.57;1.10;;;10.50;98.20;;;;;;5044055;28;20504;-74
2022/04/05 06:59:35;;;;;;;1.60;1.20;;;10.60;98.20;;;;;;5043776;28;20472;-76
2022/04/05 07:02:01;;;;;;;1.50;1.10;;;10.60;98.20;;;;;;5042802;28;20477;-76
2022/04/05 07:04:29;;;;;;;1.60;1.20;;;10.60;98.20;;;;;;5050201;28;20477;-77
2022/04/05 07:06:56;;;;;;;1.60;1.17;;;10.60;98.20;;;;;;5044361;28;20950;-76
2022/04/05 07:09:24;;;;;;;1.50;1.00;;;10.60;98.20;;;;;;5043955;28;20714;-76
2022/04/05 07:11:51;;;;;;;1.53;1.10;;;10.60;98.20;;;;;;5034904;28;21028;-76
2022/04/05 07:14:18;;;;;;;1.57;1.10;;;10.60;98.20;;;;;;5051215;28;20494;-76
2022/04/05 07:16:45;;;;;;;1.60;1.20;;;10.60;98.20;;;;;;5029050;28;20495;-76
2022/04/05 07:19:12;;;;;;;1.50;1.10;;;10.60;98.20;;;;;;5038104;28;20967;-76
2022/04/05 07:21:38;;;;;;;1.70;1.37;;;10.60;98.20;;;;;;5043221;28;20557;-76
2022/04/05 07:24:06;;;;;;;1.57;1.10;;;10.70;98.20;;;;;;5044503;28;21028;-74
2022/04/05 07:26:34;;;;;;;1.60;1.10;;;10.70;98.20;;;;;;5038056;28;20487;-76
2022/04/05 07:29:01;;;;;;;1.53;1.10;;;10.70;98.20;;;;;;5048841;28;20471;-77
2022/04/05 07:31:28;;;;;;;1.60;1.10;;;10.70;98.20;;;;;;5038924;28;20482;-75
2022/04/05 07:33:54;;;;;;;1.53;1.10;;;10.70;98.20;;;;;;5043514;28;20482;-75
2022/04/05 07:36:21;;;;;;;1.53;1.07;;;10.70;98.20;;;;;;5036623;28;20529;-75
2022/04/05 07:38:48;;;;;;;1.60;1.10;;;10.70;98.20;;;;;;5038477;28;20853;-75
2022/04/05 07:41:15;;;;;;;1.50;1.10;;;10.70;98.20;;;;;;5041158;28;21087;-75
2022/04/05 07:43:43;;;;;;;1.60;1.20;;;10.70;98.20;;;;;;5041428;28;20466;-76
2022/04/05 07:46:11;;;;;;;1.60;1.20;;;10.70;98.20;;;;;;5043890;28;20459;-77
2022/04/05 07:48:41;;;;;;;1.57;1.00;;;10.70;98.20;;;;;;5043274;28;20462;-76
2022/04/05 07:51:08;;;;;;;1.57;1.10;;;10.70;98.20;;;;;;5042425;28;20462;-75
2022/04/05 07:53:35;;;;;;;1.53;1.10;;;10.70;98.20;;;;;;5043941;28;20725;-74
2022/04/05 07:56:01;;;;;;;1.50;1.00;;;10.80;98.20;;;;;;5038930;28;20498;-74
2022/04/05 07:58:28;;;;;;;1.53;1.10;;;10.80;98.20;;;;;;5059134;28;20466;-73
2022/04/05 08:00:56;;;;;;;1.50;1.10;;;10.80;98.20;;;;;;5040533;28;20461;-74
2022/04/05 08:03:23;;;;;;;1.53;1.00;;;10.80;98.20;;;;;;5077943;28;20492;-74
2022/04/05 08:05:50;;;;;;;1.57;1.10;;;10.80;98.20;;;;;;5050427;28;20523;-73
2022/04/05 08:08:17;;;;;;;1.60;1.10;;;10.90;98.20;;;;;;5052688;28;21295;-74
2022/04/05 08:10:44;;;;;;;1.60;1.10;;;10.90;98.20;;;;;;5047844;28;20458;-73
2022/04/05 08:13:11;;;;;;;1.53;1.00;;;10.90;98.20;;;;;;5050468;28;20545;-76
2022/04/05 08:15:43;;;;;;;1.60;1.20;;;11.00;98.20;;;;;;5051240;28;21078;-75
2022/04/05 08:18:11;;;;;;;1.50;1.10;;;11.00;98.20;;;;;;5074413;28;21061;-74
2022/04/05 08:20:46;;;;;;;1.50;1.10;;;11.00;98.20;;;;;;5048262;28;20466;-74
2022/04/05 08:23:17;;;;;;;1.53;1.10;;;11.00;98.20;;;;;;5053062;28;20476;-75
2022/04/05 08:25:44;;;;;;;1.57;1.07;;;11.00;98.20;;;;;;5052533;28;20562;-77
2022/04/05 08:28:10;;;;;;;1.60;1.20;;;11.00;98.20;;;;;;5057413;28;20472;-75
2022/04/05 08:30:37;;;;;;;1.57;1.10;;;11.00;98.20;;;;;;5057015;28;20466;-76
2022/04/05 08:33:04;;;;;;;1.50;1.03;;;11.10;98.20;;;;;;5050815;28;20727;-76
2022/04/05 08:35:32;;;;;;;1.57;1.10;;;11.10;98.20;;;;;;5057409;28;20494;-75
2022/04/05 08:37:59;;;;;;;1.53;1.10;;;11.20;98.20;;;;;;5053761;28;20550;-75
2022/04/05 08:40:27;;;;;;;1.53;1.10;;;11.30;98.20;;;;;;5049908;28;20474;-77
2022/04/05 08:42:55;;;;;;;1.57;1.10;;;11.40;98.20;;;;;;5049128;28;20874;-78
2022/04/05 08:45:24;;;;;;;2.43;2.23;;;11.40;98.20;;;;;;5046507;28;20482;-76
2022/04/05 08:47:52;;;;;;;1.60;1.10;;;11.40;98.20;;;;;;5070897;28;20472;-76
2022/04/05 08:50:21;;;;;;;1.50;1.03;;;11.40;98.20;;;;;;5047825;28;20473;-75
2022/04/05 08:52:50;;;;;;;1.70;1.20;;;11.40;98.20;;;;;;5048095;28;20469;-75
2022/04/05 08:55:18;;;;;;;1.60;1.10;;;11.50;98.20;;;;;;5053121;28;21050;-76
2022/04/05 08:57:45;;;;;;;1.50;1.00;;;11.50;98.20;;;;;;5042507;28;20480;-77
2022/04/05 09:00:15;;;;;;;1.50;1.00;;;11.50;98.20;;;;;;5044375;28;20466;-74
2022/04/05 09:02:54;;;;;;;1.53;1.00;;;11.50;98.20;;;;;;5047094;28;20466;-76
2022/04/05 09:05:29;;;;;;;1.50;1.00;;;11.50;98.20;;;;;;5047939;28;20477;-76
2022/04/05 09:08:17;;;;;;;1.60;1.10;;;11.50;98.20;;;;;;5050459;28;20466;-73
2022/04/05 09:10:44;;;;;;;1.53;1.10;;;11.60;98.20;;;;;;5048927;28;21314;-75
2022/04/05 09:13:12;;;;;;;1.60;1.20;;;11.60;98.20;;;;;;5048822;28;20465;-76
2022/04/05 09:15:41;;;;;;;1.60;1.10;;;11.60;98.20;;;;;;5049254;28;20493;-75
2022/04/05 09:18:08;;;;;;;2.13;1.77;;;11.60;98.20;;;;;;5042553;28;20490;-76
2022/04/05 09:20:46;;;;;;;1.60;1.20;;;11.60;98.20;;;;;;5049760;28;20469;-75
2022/04/05 09:23:28;;;;;;;1.57;1.00;;;11.60;98.20;;;;;;5048448;28;21236;-75
2022/04/05 09:26:04;;;;;;;1.53;1.00;;;11.70;98.20;;;;;;5047852;28;20627;-74
2022/04/05 09:28:34;;;;;;;1.53;1.10;;;11.60;98.20;;;;;;5045808;28;20453;-74
2022/04/05 09:31:02;;;;;;;1.53;1.00;;;11.70;98.20;;;;;;5037489;28;20767;-77
2022/04/05 09:33:31;;;;;;;1.50;1.00;;;11.70;98.20;;;;;;5060506;28;20457;-75
2022/04/05 09:36:08;;;;;;;1.57;1.00;;;11.70;98.20;;;;;;5049298;28;20486;-74
2022/04/05 09:38:36;;;;;;;1.60;1.10;;;11.70;98.20;;;;;;5048527;28;20772;-75
2022/04/05 09:41:14;;;;;;;1.60;1.10;;;11.70;98.20;;;;;;5044993;28;20489;-78
2022/04/05 09:43:56;;;;;;;1.53;1.07;;;11.80;98.20;;;;;;5042123;28;20892;-75
2022/04/05 09:46:23;;;;;;;1.53;1.00;;;11.90;98.20;;;;;;5042207;28;20489;-75
2022/04/05 09:49:03;;;;;;;1.50;1.00;;;12.00;98.20;;;;;;5048129;28;20534;-76
2022/04/05 09:51:35;;;;;;;1.60;1.10;;;12.10;98.20;;;;;;5049384;28;20970;-76
2022/04/05 09:54:04;;;;;;;1.53;1.00;;;12.20;98.20;;;;;;5051894;28;20493;-76
2022/04/05 09:56:32;;;;;;;1.60;1.10;;;12.30;98.20;;;;;;5050343;28;20486;-78
2022/04/05 09:59:03;;;;;;;1.60;1.10;;;12.50;98.20;;;;;;5048078;28;20463;-76
2022/04/05 10:01:32;;;;;;;1.60;1.10;;;12.50;98.20;;;;;;5045997;28;20839;-75
2022/04/05 10:04:02;;;;;;;1.60;1.10;;;12.60;98.20;;;;;;5045966;28;20477;-75
2022/04/05 10:06:30;;;;;;;1.50;1.10;;;12.70;98.20;;;;;;5049293;28;20462;-75
2022/04/05 10:08:57;;;;;;;1.50;1.00;;;12.80;98.20;;;;;;5050001;28;20473;-76
2022/04/05 10:11:27;;;;;;;1.50;1.00;;;13.00;98.20;;;;;;5043799;28;20466;-76
2022/04/05 10:14:00;;;;;;;1.50;1.00;;;13.20;98.20;;;;;;5045660;28;20992;-78
2022/04/05 10:16:29;;;;;;;1.57;1.10;;;13.50;98.20;;;;;;5039555;28;20555;-76
2022/04/05 10:18:58;;;;;;;1.60;1.10;;;13.70;98.20;;;;;;5058257;28;20469;-76
2022/04/05 10:21:27;;;;;;;1.53;1.00;;;13.80;98.20;;;;;;5044488;28;20501;-77
2022/04/05 10:23:56;;;;;;;1.60;1.03;;;13.90;98.20;;;;;;5048268;28;20520;-76
2022/04/05 10:26:24;;;;;;;1.60;1.10;;;13.90;98.20;;;;;;5049103;28;20469;-76
2022/04/05 10:28:54;;;;;;;1.60;1.10;;;14.00;98.20;;;;;;5048677;28;20931;-78
2022/04/05 10:31:30;;;;;;;1.53;1.00;;;14.00;98.20;;;;;;5040064;28;21017;-77
2022/04/05 10:34:07;;;;;;;1.50;1.00;;;14.00;98.20;;;;;;5052595;28;20829;-78
2022/04/05 10:36:34;;;;;;;1.60;1.10;;;13.90;98.20;;;;;;5047131;28;20966;-76
2022/04/05 10:39:28;;;;;;;1.53;1.00;;;13.90;98.20;;;;;;5046421;28;20466;-75
2022/04/05 10:42:16;;;;;;;1.57;1.10;;;13.90;98.20;;;;;;5025769;28;20473;-75
2022/04/05 10:44:52;;;;;;;1.50;1.00;;;13.90;98.20;;;;;;5040166;28;20482;-75
2022/04/05 10:47:19;;;;;;;1.57;1.00;;;13.80;98.20;;;;;;5046117;28;20494;-75
2022/04/05 10:49:48;;;;;;;1.53;1.00;;;13.70;98.20;;;;;;5048461;28;20466;-78
2022/04/05 10:52:18;;;;;;;1.57;1.00;;;13.60;98.20;;;;;;5061523;28;20550;-76
2022/04/05 10:54:47;;;;;;;1.53;1.00;;;13.50;98.20;;;;;;5054837;28;20501;-76
2022/04/05 10:57:19;;;;;;;1.50;1.00;;;13.50;98.20;;;;;;5050468;28;20493;-77
2022/04/05 10:59:49;;;;;;;1.57;1.00;;;13.40;98.20;;;;;;5052877;28;20504;-77
2022/04/05 11:02:35;;;;;;;1.50;1.00;;;13.50;98.20;;;;;;5066638;28;20489;-77
2022/04/05 11:05:05;;;;;;;1.60;1.10;;;13.60;98.20;;;;;;5052370;28;20884;-77
2022/04/05 11:08:03;;;;;;;1.53;1.00;;;13.80;98.20;;;;;;5048979;28;20458;-76
2022/04/05 11:10:32;;;;;;;1.57;1.00;;;14.00;98.20;;;;;;5046901;28;20516;-78
2022/04/05 11:13:06;;;;;;;1.53;1.00;;;14.10;98.20;;;;;;5052821;28;20473;-79
2022/04/05 11:15:43;;;;;;;1.53;1.00;;;14.20;98.20;;;;;;5051122;28;20516;-76
2022/04/05 11:18:10;;;;;;;1.60;1.20;;;14.30;98.20;;;;;;5039818;28;20475;-78
2022/04/05 11:20:42;;;;;;;1.83;1.67;;;14.30;98.20;;;;;;5045787;28;20489;-77
2022/04/05 11:23:09;;;;;;;3.20;3.00;;;14.30;98.20;;;;;;5050694;28;20486;-76
2022/04/05 11:25:36;;;;;;;1.53;1.03;;;14.20;98.20;;;;;;5049891;28;20787;-76
2022/04/05 11:28:12;;;;;;;1.50;0.90;;;14.20;98.20;;;;;;5025459;28;20483;-77
2022/04/05 11:30:46;;;;;;;1.50;1.00;;;14.10;98.20;;;;;;5048708;28;20461;-77
2022/04/05 11:33:19;;;;;;;2.53;2.13;;;14.00;98.20;;;;;;5047634;28;20860;-79
2022/04/05 11:35:48;;;;;;;1.60;1.00;;;14.00;98.20;;;;;;5043960;28;20876;-76
2022/04/05 11:38:27;;;;;;;1.57;1.00;;;14.00;98.20;;;;;;5048048;28;20474;-79
2022/04/05 11:40:56;;;;;;;2.30;1.43;;;14.00;98.20;;;;;;5035216;28;20556;-76
2022/04/05 11:43:27;;;;;;;1.50;1.00;;;14.10;98.20;;;;;;5053920;28;20468;-75
2022/04/05 11:45:57;;;;;;;1.60;1.00;;;14.10;98.20;;;;;;5041982;28;20564;-78
2022/04/05 11:48:27;;;;;;;1.53;1.00;;;14.20;98.20;;;;;;5046706;28;20806;-77
2022/04/05 11:51:47;;;;;;;1.53;1.00;;;14.20;98.20;;;;;;5047745;28;20458;-77
2022/04/05 11:54:18;;;;;;;1.53;1.00;;;14.20;98.20;;;;;;5002896;28;20619;-76
2022/04/05 11:56:46;;;;;;;1.50;1.00;;;14.30;98.20;;;;;;5047647;28;20486;-74
2022/04/05 11:59:15;;;;;;;1.53;1.00;;;14.30;98.20;;;;;;5046364;28;20474;-77
2022/04/05 12:01:49;;;;;;;1.50;1.00;;;14.30;98.20;;;;;;5044364;28;20467;-75
2022/04/05 12:04:18;;;;;;;1.53;1.00;;;14.20;98.20;;;;;;5046523;28;20517;-77
2022/04/05 12:06:46;;;;;;;1.50;1.00;;;14.10;98.20;;;;;;5043870;28;20687;-78
2022/04/05 12:09:15;;;;;;;1.57;1.00;;;14.10;98.20;;;;;;5042787;28;20465;-76
2022/04/05 12:11:43;;;;;;;1.53;1.00;;;14.00;98.20;;;;;;5037709;28;20876;-76
2022/04/05 12:14:11;;;;;;;1.50;0.90;;;14.10;98.20;;;;;;5048103;28;20481;-80
2022/04/05 12:16:47;;;;;;;1.50;1.00;;;14.00;98.20;;;;;;5042579;28;20598;-76
2022/04/05 12:19:19;;;;;;;1.50;1.00;;;14.00;98.20;;;;;;5039124;28;20470;-77
2022/04/05 12:21:45;;;;;;;1.53;1.00;;;14.10;98.20;;;;;;5043478;28;20982;-75
2022/04/05 12:24:14;;;;;;;1.50;1.00;;;14.10;98.20;;;;;;5042378;28;20510;-77
2022/04/05 12:26:41;;;;;;;1.60;1.10;;;14.20;98.20;;;;;;5038496;28;20482;-76
2022/04/05 12:29:08;;;;;;;1.50;0.90;;;14.30;98.20;;;;;;5048343;28;20481;-75
2022/04/05 12:31:35;;;;;;;1.53;1.00;;;14.30;98.20;;;;;;5040431;28;22108;-77
2022/04/05 12:34:08;;;;;;;1.50;1.00;;;14.30;98.20;;;;;;5038379;28;20490;-76
2022/04/05 12:36:36;;;;;;;1.50;1.00;;;14.20;98.20;;;;;;5039695;28;20779;-76
2022/04/05 12:39:05;;;;;;;1.50;1.00;;;14.20;98.20;;;;;;5042126;28;20467;-76
2022/04/05 12:41:38;;;;;;;1.50;0.90;;;14.10;98.20;;;;;;5041563;28;20521;-76
2022/04/05 12:44:10;;;;;;;1.50;1.00;;;14.10;98.20;;;;;;5044606;28;20619;-76
2022/04/05 12:46:43;;;;;;;1.50;1.00;;;14.00;98.20;;;;;;5031134;28;20489;-77
2022/04/05 12:49:21;;;;;;;1.50;0.93;;;14.00;98.20;;;;;;5048851;28;20483;-76
2022/04/05 12:51:49;;;;;;;1.50;1.00;;;14.00;98.20;;;;;;5046204;28;20962;-76
2022/04/05 12:54:30;;;;;;;1.50;0.90;;;14.00;98.20;;;;;;5043270;28;20497;-76
2022/04/05 12:57:13;;;;;;;1.60;1.10;;;14.10;98.20;;;;;;5042159;28;20506;-76
2022/04/05 12:59:40;;;;;;;1.57;1.00;;;14.10;98.20;;;;;;5039549;28;20462;-75